sensor_id;sensor_type;location;lat;lon;timestamp;pressure;altitude;pressure_sealevel;temperature;humidity
20710;BME280;10516;51.518;9.864;2023-04-29T00:00:47;98286.44;;;10.81;87.76
20710;BME280;10516;51.518;9.864;2023-04-29T00:03:12;98287.78;;;10.79;88.80
20710;BME280;10516;51.518;9.864;2023-04-29T00:05:37;98282.66;;;10.67;89.36
20710;BME280;10516;51.518;9.864;2023-04-29T00:08:03;98273.88;;;10.82;88.96
20710;BME280;10516;51.518;9.864;2023-04-29T00:10:28;98273.84;;;10.67;89.33
20710;BME280;10516;51.518;9.864;2023-04-29T00:12:54;98284.00;;;10.70;89.31
20710;BME280;10516;51.518;9.864;2023-04-29T00:15:19;98278.41;;;10.71;89.26
20710;BME280;10516;51.518;9.864;2023-04-29T00:17:45;98276.00;;;10.75;89.03
20710;BME280;10516;51.518;9.864;2023-04-29T00:20:11;98278.69;;;10.80;89.16
20710;BME280;10516;51.518;9.864;2023-04-29T00:22:36;98279.22;;;10.82;88.99
20710;BME280;10516;51.518;9.864;2023-04-29T00:25:02;98275.25;;;10.94;88.38
20710;BME280;10516;51.518;9.864;2023-04-29T00:27:28;98275.50;;;10.93;88.40
20710;BME280;10516;51.518;9.864;2023-04-29T00:29:53;98273.63;;;10.78;89.54
20710;BME280;10516;51.518;9.864;2023-04-29T00:32:18;98276.84;;;10.80;89.94
20710;BME280;10516;51.518;9.864;2023-04-29T00:34:44;98281.38;;;10.85;89.38
20710;BME280;10516;51.518;9.864;2023-04-29T00:37:09;98277.63;;;10.76;90.00
20710;BME280;10516;51.518;9.864;2023-04-29T00:39:34;98279.22;;;10.77;90.78
20710;BME280;10516;51.518;9.864;2023-04-29T00:42:00;98282.41;;;10.69;91.59
20710;BME280;10516;51.518;9.864;2023-04-29T00:44:27;98287.75;;;10.74;90.65
20710;BME280;10516;51.518;9.864;2023-04-29T00:46:52;98290.97;;;10.76;90.37
20710;BME280;10516;51.518;9.864;2023-04-29T00:49:18;98292.56;;;10.82;90.49
20710;BME280;10516;51.518;9.864;2023-04-29T00:51:43;98299.25;;;10.79;91.26
20710;BME280;10516;51.518;9.864;2023-04-29T00:54:09;98295.25;;;10.77;91.72
20710;BME280;10516;51.518;9.864;2023-04-29T00:56:35;98297.38;;;10.70;91.51
20710;BME280;10516;51.518;9.864;2023-04-29T00:59:01;98294.44;;;10.76;90.44
20710;BME280;10516;51.518;9.864;2023-04-29T01:01:28;98297.34;;;10.75;91.09
20710;BME280;10516;51.518;9.864;2023-04-29T01:03:54;98303.78;;;10.79;91.32
20710;BME280;10516;51.518;9.864;2023-04-29T01:06:28;98302.44;;;10.76;91.74
20710;BME280;10516;51.518;9.864;2023-04-29T01:11:22;98297.66;;;10.78;91.37
20710;BME280;10516;51.518;9.864;2023-04-29T01:13:58;98305.34;;;10.75;91.42
20710;BME280;10516;51.518;9.864;2023-04-29T01:16:37;98299.50;;;10.78;90.82
20710;BME280;10516;51.518;9.864;2023-04-29T01:19:20;98304.88;;;10.83;90.55
20710;BME280;10516;51.518;9.864;2023-04-29T01:21:51;98304.56;;;10.79;90.60
20710;BME280;10516;51.518;9.864;2023-04-29T01:24:17;98301.88;;;10.69;92.30
20710;BME280;10516;51.518;9.864;2023-04-29T01:26:44;98311.81;;;10.79;91.69
20710;BME280;10516;51.518;9.864;2023-04-29T01:32:04;98311.50;;;10.75;92.06
20710;BME280;10516;51.518;9.864;2023-04-29T01:34:34;98310.41;;;10.66;92.58
20710;BME280;10516;51.518;9.864;2023-04-29T01:39:48;98318.69;;;10.65;91.78
20710;BME280;10516;51.518;9.864;2023-04-29T01:42:22;98319.19;;;10.57;91.94
20710;BME280;10516;51.518;9.864;2023-04-29T01:44:49;98316.53;;;10.62;92.04
20710;BME280;10516;51.518;9.864;2023-04-29T01:47:15;98317.34;;;10.57;91.87
20710;BME280;10516;51.518;9.864;2023-04-29T01:49:41;98316.47;;;10.46;92.49
20710;BME280;10516;51.518;9.864;2023-04-29T01:52:06;98317.59;;;10.61;91.92
20710;BME280;10516;51.518;9.864;2023-04-29T01:54:31;98320.50;;;10.44;92.07
20710;BME280;10516;51.518;9.864;2023-04-29T01:57:00;98321.56;;;10.53;92.40
20710;BME280;10516;51.518;9.864;2023-04-29T01:59:25;98322.59;;;10.42;93.02
20710;BME280;10516;51.518;9.864;2023-04-29T02:01:51;98322.09;;;10.55;92.05
20710;BME280;10516;51.518;9.864;2023-04-29T02:04:16;98325.25;;;10.37;92.64
20710;BME280;10516;51.518;9.864;2023-04-29T02:06:42;98329.88;;;10.62;91.52
20710;BME280;10516;51.518;9.864;2023-04-29T02:09:08;98334.06;;;10.37;92.44
20710;BME280;10516;51.518;9.864;2023-04-29T02:11:33;98334.91;;;10.53;91.86
20710;BME280;10516;51.518;9.864;2023-04-29T02:13:58;98332.25;;;10.53;92.04
20710;BME280;10516;51.518;9.864;2023-04-29T02:16:24;98327.22;;;10.67;90.85
20710;BME280;10516;51.518;9.864;2023-04-29T02:18:49;98340.00;;;10.54;92.14
20710;BME280;10516;51.518;9.864;2023-04-29T02:21:14;98335.72;;;10.53;91.61
20710;BME280;10516;51.518;9.864;2023-04-29T02:23:40;98336.59;;;10.69;90.47
20710;BME280;10516;51.518;9.864;2023-04-29T02:26:05;98334.06;;;10.37;93.08
20710;BME280;10516;51.518;9.864;2023-04-29T02:28:31;98347.72;;;10.51;92.21
20710;BME280;10516;51.518;9.864;2023-04-29T02:30:56;98343.19;;;10.51;92.98
20710;BME280;10516;51.518;9.864;2023-04-29T02:33:21;98342.63;;;10.49;91.95
20710;BME280;10516;51.518;9.864;2023-04-29T02:35:47;98347.72;;;10.51;92.03
20710;BME280;10516;51.518;9.864;2023-04-29T02:38:12;98342.59;;;10.44;92.75
20710;BME280;10516;51.518;9.864;2023-04-29T02:40:44;98341.09;;;10.59;91.31
20710;BME280;10516;51.518;9.864;2023-04-29T02:43:10;98351.16;;;10.46;92.26
20710;BME280;10516;51.518;9.864;2023-04-29T02:45:36;98349.38;;;10.67;90.35
20710;BME280;10516;51.518;9.864;2023-04-29T02:48:01;98347.22;;;10.59;90.94
20710;BME280;10516;51.518;9.864;2023-04-29T02:50:27;98358.19;;;10.63;91.34
20710;BME280;10516;51.518;9.864;2023-04-29T02:52:52;98350.06;;;10.42;92.42
20710;BME280;10516;51.518;9.864;2023-04-29T02:55:17;98356.00;;;10.54;91.21
20710;BME280;10516;51.518;9.864;2023-04-29T02:57:43;98353.53;;;10.43;93.11
20710;BME280;10516;51.518;9.864;2023-04-29T03:00:09;98352.03;;;10.57;91.02
20710;BME280;10516;51.518;9.864;2023-04-29T03:02:34;98351.47;;;10.55;91.42
20710;BME280;10516;51.518;9.864;2023-04-29T03:04:59;98353.88;;;10.57;91.04
20710;BME280;10516;51.518;9.864;2023-04-29T03:07:25;98354.34;;;10.43;91.77
20710;BME280;10516;51.518;9.864;2023-04-29T03:09:50;98352.50;;;10.44;92.67
20710;BME280;10516;51.518;9.864;2023-04-29T03:12:15;98358.66;;;10.49;91.36
20710;BME280;10516;51.518;9.864;2023-04-29T03:14:40;98356.78;;;10.50;91.81
20710;BME280;10516;51.518;9.864;2023-04-29T03:17:06;98363.69;;;10.41;92.10
20710;BME280;10516;51.518;9.864;2023-04-29T03:19:31;98353.81;;;10.46;91.24
20710;BME280;10516;51.518;9.864;2023-04-29T03:21:57;98364.50;;;10.41;91.83
20710;BME280;10516;51.518;9.864;2023-04-29T03:24:22;98366.63;;;10.44;91.49
20710;BME280;10516;51.518;9.864;2023-04-29T03:26:47;98369.28;;;10.39;91.78
20710;BME280;10516;51.518;9.864;2023-04-29T03:29:12;98371.41;;;10.42;91.41
20710;BME280;10516;51.518;9.864;2023-04-29T03:31:38;98366.53;;;10.29;92.25
20710;BME280;10516;51.518;9.864;2023-04-29T03:34:03;98368.41;;;10.29;92.56
20710;BME280;10516;51.518;9.864;2023-04-29T03:36:29;98365.50;;;10.35;92.02
20710;BME280;10516;51.518;9.864;2023-04-29T03:38:54;98370.50;;;10.22;92.35
20710;BME280;10516;51.518;9.864;2023-04-29T03:41:20;98373.81;;;10.02;93.85
20710;BME280;10516;51.518;9.864;2023-04-29T03:43:47;98368.16;;;10.30;92.25
20710;BME280;10516;51.518;9.864;2023-04-29T03:46:13;98369.69;;;10.21;91.95
20710;BME280;10516;51.518;9.864;2023-04-29T03:48:38;98365.75;;;10.34;91.37
20710;BME280;10516;51.518;9.864;2023-04-29T03:51:03;98379.72;;;10.09;92.76
20710;BME280;10516;51.518;9.864;2023-04-29T03:53:29;98374.50;;;10.19;91.89
20710;BME280;10516;51.518;9.864;2023-04-29T03:55:54;98373.81;;;10.07;92.47
20710;BME280;10516;51.518;9.864;2023-04-29T03:58:20;98371.50;;;10.16;91.95
20710;BME280;10516;51.518;9.864;2023-04-29T04:00:45;98377.41;;;10.18;91.57
20710;BME280;10516;51.518;9.864;2023-04-29T04:03:12;98390.06;;;10.01;92.51
20710;BME280;10516;51.518;9.864;2023-04-29T04:05:38;98380.75;;;10.03;92.06
20710;BME280;10516;51.518;9.864;2023-04-29T04:08:03;98388.69;;;9.98;93.12
20710;BME280;10516;51.518;9.864;2023-04-29T04:10:28;98392.22;;;10.04;93.01
20710;BME280;10516;51.518;9.864;2023-04-29T04:12:54;98390.59;;;10.03;92.97
20710;BME280;10516;51.518;9.864;2023-04-29T04:15:19;98394.25;;;9.92;93.05
20710;BME280;10516;51.518;9.864;2023-04-29T04:17:45;98394.44;;;10.12;92.11
20710;BME280;10516;51.518;9.864;2023-04-29T04:20:10;98393.69;;;10.21;91.50
20710;BME280;10516;51.518;9.864;2023-04-29T04:22:37;98400.34;;;10.19;91.32
20710;BME280;10516;51.518;9.864;2023-04-29T04:25:02;98410.34;;;10.02;92.06
20710;BME280;10516;51.518;9.864;2023-04-29T04:27:28;98418.66;;;10.10;91.88
20710;BME280;10516;51.518;9.864;2023-04-29T04:29:54;98424.69;;;9.96;92.33
20710;BME280;10516;51.518;9.864;2023-04-29T04:32:20;98429.03;;;10.07;91.92
20710;BME280;10516;51.518;9.864;2023-04-29T04:34:46;98431.31;;;10.25;90.05
20710;BME280;10516;51.518;9.864;2023-04-29T04:37:11;98432.06;;;10.15;90.91
20710;BME280;10516;51.518;9.864;2023-04-29T04:39:37;98434.97;;;10.14;90.94
20710;BME280;10516;51.518;9.864;2023-04-29T04:42:02;98440.56;;;10.12;90.35
20710;BME280;10516;51.518;9.864;2023-04-29T04:44:28;98445.19;;;10.22;90.22
20710;BME280;10516;51.518;9.864;2023-04-29T04:46:53;98442.53;;;10.22;90.31
20710;BME280;10516;51.518;9.864;2023-04-29T04:49:19;98450.22;;;10.18;90.16
20710;BME280;10516;51.518;9.864;2023-04-29T04:51:44;98452.13;;;10.23;89.88
20710;BME280;10516;51.518;9.864;2023-04-29T04:54:09;98453.19;;;10.27;89.80
20710;BME280;10516;51.518;9.864;2023-04-29T04:56:35;98461.25;;;10.32;89.32
20710;BME280;10516;51.518;9.864;2023-04-29T04:59:01;98466.84;;;10.30;89.62
20710;BME280;10516;51.518;9.864;2023-04-29T05:01:27;98473.97;;;10.20;89.92
20710;BME280;10516;51.518;9.864;2023-04-29T05:03:52;98475.56;;;10.21;89.76
20710;BME280;10516;51.518;9.864;2023-04-29T05:06:17;98474.09;;;10.08;90.66
20710;BME280;10516;51.518;9.864;2023-04-29T05:08:43;98480.63;;;10.17;89.90
20710;BME280;10516;51.518;9.864;2023-04-29T05:11:15;98477.19;;;10.22;90.16
20710;BME280;10516;51.518;9.864;2023-04-29T05:13:40;98482.31;;;10.02;90.55
20710;BME280;10516;51.518;9.864;2023-04-29T05:16:05;98486.94;;;10.11;90.20
20710;BME280;10516;51.518;9.864;2023-04-29T05:18:30;98480.97;;;9.99;90.64
20710;BME280;10516;51.518;9.864;2023-04-29T05:20:56;98487.44;;;10.08;89.95
20710;BME280;10516;51.518;9.864;2023-04-29T05:23:21;98494.34;;;10.04;90.19
20710;BME280;10516;51.518;9.864;2023-04-29T05:25:47;98494.38;;;10.09;90.41
20710;BME280;10516;51.518;9.864;2023-04-29T05:28:12;98489.28;;;10.08;90.33
20710;BME280;10516;51.518;9.864;2023-04-29T05:30:37;98500.78;;;10.08;90.28
20710;BME280;10516;51.518;9.864;2023-04-29T05:33:02;98500.66;;;10.20;89.89
20710;BME280;10516;51.518;9.864;2023-04-29T05:35:28;98502.53;;;10.24;89.57
20710;BME280;10516;51.518;9.864;2023-04-29T05:37:53;98504.25;;;10.09;89.72
20710;BME280;10516;51.518;9.864;2023-04-29T05:40:18;98508.97;;;10.28;89.30
20710;BME280;10516;51.518;9.864;2023-04-29T05:42:44;98510.34;;;10.04;90.13
20710;BME280;10516;51.518;9.864;2023-04-29T05:45:09;98506.44;;;10.12;90.58
20710;BME280;10516;51.518;9.864;2023-04-29T05:47:34;98514.66;;;10.10;90.20
20710;BME280;10516;51.518;9.864;2023-04-29T05:50:00;98514.97;;;10.14;89.44
20710;BME280;10516;51.518;9.864;2023-04-29T05:52:25;98521.78;;;10.26;89.32
20710;BME280;10516;51.518;9.864;2023-04-29T05:54:50;98522.75;;;10.15;89.58
20710;BME280;10516;51.518;9.864;2023-04-29T05:57:16;98522.31;;;10.02;90.31
20710;BME280;10516;51.518;9.864;2023-04-29T05:59:41;98533.09;;;10.12;90.41
20710;BME280;10516;51.518;9.864;2023-04-29T06:02:06;98540.50;;;9.83;91.85
20710;BME280;10516;51.518;9.864;2023-04-29T06:04:31;98541.38;;;9.89;91.42
20710;BME280;10516;51.518;9.864;2023-04-29T06:06:57;98542.38;;;10.09;90.46
20710;BME280;10516;51.518;9.864;2023-04-29T06:09:22;98544.56;;;10.12;89.88
20710;BME280;10516;51.518;9.864;2023-04-29T06:11:50;98547.31;;;10.22;89.58
20710;BME280;10516;51.518;9.864;2023-04-29T06:14:16;98561.66;;;10.16;90.49
20710;BME280;10516;51.518;9.864;2023-04-29T06:16:41;98559.81;;;10.17;89.80
20710;BME280;10516;51.518;9.864;2023-04-29T06:19:07;98570.03;;;10.03;91.21
20710;BME280;10516;51.518;9.864;2023-04-29T06:21:32;98566.81;;;10.01;90.70
20710;BME280;10516;51.518;9.864;2023-04-29T06:23:57;98569.28;;;10.08;90.51
20710;BME280;10516;51.518;9.864;2023-04-29T06:26:23;98568.38;;;10.19;90.41
20710;BME280;10516;51.518;9.864;2023-04-29T06:28:48;98567.13;;;10.26;89.13
20710;BME280;10516;51.518;9.864;2023-04-29T06:31:13;98574.59;;;10.29;89.59
20710;BME280;10516;51.518;9.864;2023-04-29T06:33:39;98575.34;;;10.25;89.71
20710;BME280;10516;51.518;9.864;2023-04-29T06:36:04;98581.41;;;10.15;90.31
20710;BME280;10516;51.518;9.864;2023-04-29T06:38:29;98586.50;;;9.95;91.24
20710;BME280;10516;51.518;9.864;2023-04-29T06:40:55;98589.22;;;10.00;91.62
20710;BME280;10516;51.518;9.864;2023-04-29T06:43:24;98597.31;;;10.10;90.84
20710;BME280;10516;51.518;9.864;2023-04-29T06:45:50;98605.69;;;10.19;90.46
20710;BME280;10516;51.518;9.864;2023-04-29T06:48:16;98603.97;;;10.08;90.88
20710;BME280;10516;51.518;9.864;2023-04-29T06:50:50;98616.84;;;10.37;89.73
20710;BME280;10516;51.518;9.864;2023-04-29T06:53:16;98610.56;;;10.27;89.99
20710;BME280;10516;51.518;9.864;2023-04-29T06:55:41;98611.03;;;10.45;88.72
20710;BME280;10516;51.518;9.864;2023-04-29T06:58:07;98617.69;;;10.43;88.88
20710;BME280;10516;51.518;9.864;2023-04-29T07:00:32;98629.22;;;10.22;89.51
20710;BME280;10516;51.518;9.864;2023-04-29T07:02:57;98630.06;;;10.27;89.49
20710;BME280;10516;51.518;9.864;2023-04-29T07:05:22;98620.75;;;10.30;88.74
20710;BME280;10516;51.518;9.864;2023-04-29T07:07:48;98631.72;;;10.33;89.03
20710;BME280;10516;51.518;9.864;2023-04-29T07:10:13;98633.28;;;10.29;88.92
20710;BME280;10516;51.518;9.864;2023-04-29T07:12:39;98631.06;;;10.48;88.15
20710;BME280;10516;51.518;9.864;2023-04-29T07:15:04;98645.41;;;10.42;88.19
20710;BME280;10516;51.518;9.864;2023-04-29T07:17:29;98640.66;;;10.22;89.47
20710;BME280;10516;51.518;9.864;2023-04-29T07:19:55;98649.19;;;10.19;89.47
20710;BME280;10516;51.518;9.864;2023-04-29T07:22:20;98655.44;;;10.30;89.62
20710;BME280;10516;51.518;9.864;2023-04-29T07:24:46;98653.19;;;10.43;88.86
20710;BME280;10516;51.518;9.864;2023-04-29T07:27:11;98667.69;;;10.52;88.14
20710;BME280;10516;51.518;9.864;2023-04-29T07:29:37;98668.88;;;10.40;88.68
20710;BME280;10516;51.518;9.864;2023-04-29T07:32:02;98667.66;;;10.26;89.06
20710;BME280;10516;51.518;9.864;2023-04-29T07:34:27;98676.31;;;10.38;88.96
20710;BME280;10516;51.518;9.864;2023-04-29T07:36:53;98674.63;;;10.53;88.09
20710;BME280;10516;51.518;9.864;2023-04-29T07:39:18;98675.38;;;10.49;88.45
20710;BME280;10516;51.518;9.864;2023-04-29T07:41:43;98679.19;;;10.58;87.74
20710;BME280;10516;51.518;9.864;2023-04-29T07:44:09;98678.59;;;10.51;88.10
20710;BME280;10516;51.518;9.864;2023-04-29T07:46:35;98685.28;;;10.53;87.96
20710;BME280;10516;51.518;9.864;2023-04-29T07:49:00;98697.88;;;10.58;87.63
20710;BME280;10516;51.518;9.864;2023-04-29T07:51:26;98692.06;;;10.66;87.25
20710;BME280;10516;51.518;9.864;2023-04-29T07:53:52;98708.50;;;10.53;88.34
20710;BME280;10516;51.518;9.864;2023-04-29T07:56:18;98707.59;;;10.69;87.23
20710;BME280;10516;51.518;9.864;2023-04-29T07:58:44;98707.19;;;10.82;86.51
20710;BME280;10516;51.518;9.864;2023-04-29T08:01:10;98709.50;;;10.74;86.66
20710;BME280;10516;51.518;9.864;2023-04-29T08:03:37;98713.97;;;10.68;86.98
20710;BME280;10516;51.518;9.864;2023-04-29T08:06:03;98711.09;;;10.75;86.69
20710;BME280;10516;51.518;9.864;2023-04-29T08:08:29;98716.44;;;10.75;86.36
20710;BME280;10516;51.518;9.864;2023-04-29T08:10:54;98719.31;;;10.68;86.56
20710;BME280;10516;51.518;9.864;2023-04-29T08:13:20;98725.13;;;10.60;87.10
20710;BME280;10516;51.518;9.864;2023-04-29T08:15:45;98736.16;;;10.69;86.90
20710;BME280;10516;51.518;9.864;2023-04-29T08:18:10;98730.19;;;10.62;86.74
20710;BME280;10516;51.518;9.864;2023-04-29T08:20:36;98739.56;;;10.64;87.25
20710;BME280;10516;51.518;9.864;2023-04-29T08:23:01;98735.84;;;10.65;86.90
20710;BME280;10516;51.518;9.864;2023-04-29T08:25:26;98744.34;;;10.62;86.68
20710;BME280;10516;51.518;9.864;2023-04-29T08:27:53;98737.91;;;10.58;87.10
20710;BME280;10516;51.518;9.864;2023-04-29T08:30:18;98738.66;;;10.80;86.35
20710;BME280;10516;51.518;9.864;2023-04-29T08:32:43;98744.50;;;10.77;86.26
20710;BME280;10516;51.518;9.864;2023-04-29T08:35:09;98739.16;;;10.77;86.61
20710;BME280;10516;51.518;9.864;2023-04-29T08:37:34;98746.34;;;10.98;85.56
20710;BME280;10516;51.518;9.864;2023-04-29T08:39:59;98748.66;;;10.90;86.06
20710;BME280;10516;51.518;9.864;2023-04-29T08:42:42;98757.31;;;10.75;86.01
20710;BME280;10516;51.518;9.864;2023-04-29T08:45:09;98766.88;;;10.98;85.19
20710;BME280;10516;51.518;9.864;2023-04-29T08:47:34;98762.09;;;11.00;85.38
20710;BME280;10516;51.518;9.864;2023-04-29T08:50:02;98765.81;;;10.99;85.47
20710;BME280;10516;51.518;9.864;2023-04-29T08:52:28;98773.56;;;10.74;85.70
20710;BME280;10516;51.518;9.864;2023-04-29T08:54:54;98764.63;;;10.85;85.63
20710;BME280;10516;51.518;9.864;2023-04-29T08:57:20;98769.44;;;10.88;85.02
20710;BME280;10516;51.518;9.864;2023-04-29T08:59:46;98786.56;;;10.65;84.31
20710;BME280;10516;51.518;9.864;2023-04-29T09:02:12;98790.72;;;10.13;86.18
20710;BME280;10516;51.518;9.864;2023-04-29T09:04:46;98787.53;;;10.16;87.27
20710;BME280;10516;51.518;9.864;2023-04-29T09:07:12;98790.38;;;9.71;86.65
20710;BME280;10516;51.518;9.864;2023-04-29T09:09:38;98788.47;;;9.88;87.81
20710;BME280;10516;51.518;9.864;2023-04-29T09:12:03;98800.44;;;9.86;87.47
20710;BME280;10516;51.518;9.864;2023-04-29T09:14:29;98804.72;;;9.70;86.13
20710;BME280;10516;51.518;9.864;2023-04-29T09:16:57;98801.50;;;9.85;87.07
20710;BME280;10516;51.518;9.864;2023-04-29T09:19:33;98802.34;;;10.45;86.96
20710;BME280;10516;51.518;9.864;2023-04-29T09:21:59;98812.34;;;10.33;86.57
20710;BME280;10516;51.518;9.864;2023-04-29T09:24:25;98809.03;;;10.26;86.74
20710;BME280;10516;51.518;9.864;2023-04-29T09:26:52;98817.75;;;10.05;86.32
20710;BME280;10516;51.518;9.864;2023-04-29T09:29:21;98816.75;;;10.44;86.50
20710;BME280;10516;51.518;9.864;2023-04-29T09:31:48;98826.28;;;10.02;86.27
20710;BME280;10516;51.518;9.864;2023-04-29T09:34:13;98829.19;;;10.00;86.93
20710;BME280;10516;51.518;9.864;2023-04-29T09:39:08;98838.56;;;10.41;86.36
20710;BME280;10516;51.518;9.864;2023-04-29T09:44:17;98848.63;;;10.77;85.15
20710;BME280;10516;51.518;9.864;2023-04-29T09:46:43;98845.28;;;10.65;85.07
20710;BME280;10516;51.518;9.864;2023-04-29T09:49:20;98842.53;;;10.38;85.42
20710;BME280;10516;51.518;9.864;2023-04-29T09:52:06;98846.84;;;10.83;85.23
20710;BME280;10516;51.518;9.864;2023-04-29T09:54:32;98857.94;;;10.75;84.42
20710;BME280;10516;51.518;9.864;2023-04-29T09:56:59;98856.25;;;10.90;84.80
20710;BME280;10516;51.518;9.864;2023-04-29T09:59:24;98867.56;;;10.97;84.05
20710;BME280;10516;51.518;9.864;2023-04-29T10:01:52;98863.94;;;11.08;82.73
20710;BME280;10516;51.518;9.864;2023-04-29T10:04:18;98865.81;;;10.86;80.96
20710;BME280;10516;51.518;9.864;2023-04-29T10:06:45;98860.56;;;10.70;81.07
20710;BME280;10516;51.518;9.864;2023-04-29T10:09:13;98868.03;;;10.94;82.35
20710;BME280;10516;51.518;9.864;2023-04-29T10:11:44;98870.06;;;10.82;81.13
20710;BME280;10516;51.518;9.864;2023-04-29T10:14:11;98866.06;;;10.85;80.62
20710;BME280;10516;51.518;9.864;2023-04-29T10:16:38;98868.69;;;10.80;82.31
20710;BME280;10516;51.518;9.864;2023-04-29T10:19:05;98864.78;;;10.66;81.09
20710;BME280;10516;51.518;9.864;2023-04-29T10:21:35;98864.97;;;10.81;82.14
20710;BME280;10516;51.518;9.864;2023-04-29T10:24:02;98874.94;;;10.69;80.82
20710;BME280;10516;51.518;9.864;2023-04-29T10:26:27;98876.50;;;10.43;81.56
20710;BME280;10516;51.518;9.864;2023-04-29T10:28:57;98883.31;;;10.55;81.38
20710;BME280;10516;51.518;9.864;2023-04-29T10:31:27;98879.28;;;10.15;82.12
20710;BME280;10516;51.518;9.864;2023-04-29T10:33:56;98887.84;;;10.17;82.75
20710;BME280;10516;51.518;9.864;2023-04-29T10:36:22;98892.03;;;10.29;82.15
20710;BME280;10516;51.518;9.864;2023-04-29T10:38:48;98884.44;;;10.60;83.45
20710;BME280;10516;51.518;9.864;2023-04-29T10:43:45;98891.97;;;10.84;79.93
20710;BME280;10516;51.518;9.864;2023-04-29T10:46:20;98894.44;;;10.91;78.47
20710;BME280;10516;51.518;9.864;2023-04-29T10:48:46;98887.16;;;11.08;77.89
20710;BME280;10516;51.518;9.864;2023-04-29T10:51:12;98892.69;;;11.01;76.01
20710;BME280;10516;51.518;9.864;2023-04-29T10:56:23;98896.50;;;10.84;76.85
20710;BME280;10516;51.518;9.864;2023-04-29T10:58:59;98899.16;;;10.84;77.17
20710;BME280;10516;51.518;9.864;2023-04-29T11:01:39;98897.38;;;10.89;78.63
20710;BME280;10516;51.518;9.864;2023-04-29T11:04:04;98898.78;;;10.75;78.27
20710;BME280;10516;51.518;9.864;2023-04-29T11:09:08;98893.38;;;11.13;78.79
20710;BME280;10516;51.518;9.864;2023-04-29T11:11:55;98898.50;;;10.72;78.15
20710;BME280;10516;51.518;9.864;2023-04-29T11:14:33;98902.56;;;10.79;78.09
20710;BME280;10516;51.518;9.864;2023-04-29T11:17:04;98904.91;;;11.19;77.58
20710;BME280;10516;51.518;9.864;2023-04-29T11:22:12;98909.19;;;11.68;76.67
20710;BME280;10516;51.518;9.864;2023-04-29T11:24:48;98923.94;;;11.49;77.18
20710;BME280;10516;51.518;9.864;2023-04-29T11:27:14;98918.28;;;11.19;74.93
20710;BME280;10516;51.518;9.864;2023-04-29T11:29:39;98924.91;;;10.90;75.46
20710;BME280;10516;51.518;9.864;2023-04-29T11:32:05;98918.66;;;10.84;75.70
20710;BME280;10516;51.518;9.864;2023-04-29T11:34:31;98919.03;;;10.93;75.96
20710;BME280;10516;51.518;9.864;2023-04-29T11:36:56;98923.19;;;11.54;78.70
20710;BME280;10516;51.518;9.864;2023-04-29T11:39:22;98918.94;;;11.58;78.27
20710;BME280;10516;51.518;9.864;2023-04-29T11:41:48;98921.09;;;11.34;77.08
20710;BME280;10516;51.518;9.864;2023-04-29T11:44:13;98923.28;;;11.37;77.04
20710;BME280;10516;51.518;9.864;2023-04-29T11:46:38;98935.03;;;11.36;77.42
20710;BME280;10516;51.518;9.864;2023-04-29T11:49:04;98927.84;;;11.15;76.47
20710;BME280;10516;51.518;9.864;2023-04-29T11:51:29;98935.13;;;11.19;76.65
20710;BME280;10516;51.518;9.864;2023-04-29T11:53:55;98928.84;;;11.30;76.19
20710;BME280;10516;51.518;9.864;2023-04-29T11:56:22;98937.41;;;11.59;78.24
20710;BME280;10516;51.518;9.864;2023-04-29T11:58:54;98933.06;;;11.53;76.20
20710;BME280;10516;51.518;9.864;2023-04-29T12:01:20;98946.06;;;11.66;77.29
20710;BME280;10516;51.518;9.864;2023-04-29T12:03:47;98940.16;;;11.16;74.27
20710;BME280;10516;51.518;9.864;2023-04-29T12:06:12;98945.38;;;11.06;75.31
20710;BME280;10516;51.518;9.864;2023-04-29T12:08:38;98939.53;;;11.30;78.53
20710;BME280;10516;51.518;9.864;2023-04-29T12:11:03;98954.88;;;11.18;76.39
20710;BME280;10516;51.518;9.864;2023-04-29T12:13:31;98946.00;;;11.13;76.38
20710;BME280;10516;51.518;9.864;2023-04-29T12:15:57;98948.19;;;11.43;77.57
20710;BME280;10516;51.518;9.864;2023-04-29T12:18:23;98949.94;;;11.32;78.01
20710;BME280;10516;51.518;9.864;2023-04-29T12:20:49;98950.56;;;11.39;77.11
20710;BME280;10516;51.518;9.864;2023-04-29T12:23:19;98950.41;;;11.24;76.96
20710;BME280;10516;51.518;9.864;2023-04-29T12:25:57;98962.97;;;11.50;77.24
20710;BME280;10516;51.518;9.864;2023-04-29T12:28:23;98958.00;;;11.59;75.95
20710;BME280;10516;51.518;9.864;2023-04-29T12:30:49;98966.69;;;11.49;75.23
20710;BME280;10516;51.518;9.864;2023-04-29T12:33:19;98966.59;;;11.39;74.28
20710;BME280;10516;51.518;9.864;2023-04-29T12:35:50;98968.94;;;11.57;75.22
20710;BME280;10516;51.518;9.864;2023-04-29T12:38:29;98971.53;;;11.74;74.75
20710;BME280;10516;51.518;9.864;2023-04-29T12:40:58;98973.72;;;11.77;74.02
20710;BME280;10516;51.518;9.864;2023-04-29T12:43:25;98975.09;;;11.79;73.55
20710;BME280;10516;51.518;9.864;2023-04-29T12:45:53;98976.69;;;11.80;74.64
20710;BME280;10516;51.518;9.864;2023-04-29T12:48:18;98979.16;;;11.87;74.52
20710;BME280;10516;51.518;9.864;2023-04-29T12:50:43;98983.16;;;11.63;73.92
20710;BME280;10516;51.518;9.864;2023-04-29T12:53:13;98979.31;;;11.54;73.63
20710;BME280;10516;51.518;9.864;2023-04-29T12:55:39;98978.47;;;11.48;73.75
20710;BME280;10516;51.518;9.864;2023-04-29T12:58:05;98988.06;;;11.22;73.12
20710;BME280;10516;51.518;9.864;2023-04-29T13:00:31;98987.63;;;11.09;73.10
20710;BME280;10516;51.518;9.864;2023-04-29T13:02:58;98978.59;;;11.15;73.51
20710;BME280;10516;51.518;9.864;2023-04-29T13:05:23;98982.50;;;10.86;72.01
20710;BME280;10516;51.518;9.864;2023-04-29T13:07:49;98980.47;;;10.93;73.15
20710;BME280;10516;51.518;9.864;2023-04-29T13:10:14;98978.50;;;11.26;73.53
20710;BME280;10516;51.518;9.864;2023-04-29T13:12:40;98980.03;;;11.22;74.18
20710;BME280;10516;51.518;9.864;2023-04-29T13:15:06;98970.47;;;11.53;73.81
20710;BME280;10516;51.518;9.864;2023-04-29T13:17:33;98974.56;;;10.91;72.64
20710;BME280;10516;51.518;9.864;2023-04-29T13:19:59;98975.72;;;11.43;73.95